Time;durP1;ratioP1;P1;durP2;ratioP2;P2;SDS_P1;SDS_P2;PMS_P1;PMS_P2;Temp;Humidity;BMP_temperature;BMP_pressure;BME280_temperature;BME280_humidity;BME280_pressure;Samples;Min_cycle;Max_cycle;Signal;HPM_P1;HPM_P2
2022/12/19 00:01:19;;;;;;;37.60;22.63;;;-2.10;99.90;;;;;;5031885;28;20205;-77
2022/12/19 00:03:47;;;;;;;41.17;22.50;;;-2.10;99.90;;;;;;5035632;28;20385;-77
2022/12/19 00:06:13;;;;;;;36.83;22.77;;;-2.10;99.90;;;;;;5031286;28;20206;-77
2022/12/19 00:08:45;;;;;;;39.20;22.47;;;-2.00;99.90;;;;;;5031221;28;20175;-77
2022/12/19 00:11:12;;;;;;;39.53;22.80;;;-2.00;99.90;;;;;;5030984;28;20650;-78
2022/12/19 00:13:39;;;;;;;36.47;22.00;;;-2.00;99.90;;;;;;5034077;28;20660;-77
2022/12/19 00:16:09;;;;;;;36.97;22.67;;;-2.00;99.90;;;;;;5034998;28;20241;-77
2022/12/19 00:18:35;;;;;;;43.47;22.43;;;-1.90;99.90;;;;;;5035032;28;20256;-77
2022/12/19 00:21:03;;;;;;;37.37;21.50;;;-2.00;99.90;;;;;;5054161;28;20202;-76
2022/12/19 00:23:32;;;;;;;41.03;22.97;;;-2.00;99.90;;;;;;5045961;28;20218;-76
2022/12/19 00:26:34;;;;;;;38.17;21.13;;;-2.00;99.90;;;;;;5047297;28;20207;-76
2022/12/19 00:29:05;;;;;;;39.37;22.27;;;-2.00;99.90;;;;;;5018793;28;20182;-76
2022/12/19 00:31:33;;;;;;;40.47;22.07;;;-2.00;99.90;;;;;;5030648;28;20179;-77
2022/12/19 00:34:00;;;;;;;38.33;22.60;;;-2.10;99.90;;;;;;5033877;28;20182;-77
2022/12/19 00:36:28;;;;;;;37.20;22.10;;;-2.10;99.90;;;;;;5034474;28;20178;-77
2022/12/19 00:38:56;;;;;;;37.30;22.50;;;-2.00;99.90;;;;;;5057918;28;20179;-77
2022/12/19 00:41:24;;;;;;;35.70;21.50;;;-2.10;99.90;;;;;;5042559;28;20187;-77
2022/12/19 00:44:04;;;;;;;41.77;22.23;;;-2.00;99.90;;;;;;5044273;28;20183;-77
2022/12/19 00:46:31;;;;;;;37.67;21.43;;;-2.10;99.90;;;;;;5043854;28;20210;-77
2022/12/19 00:48:58;;;;;;;38.93;21.70;;;-2.10;99.90;;;;;;5036088;28;20182;-77
2022/12/19 00:51:27;;;;;;;37.67;23.30;;;-2.00;99.90;;;;;;5034491;28;20210;-77
2022/12/19 00:53:54;;;;;;;43.40;27.97;;;-2.00;99.90;;;;;;5034124;28;20209;-77
2022/12/19 00:56:23;;;;;;;49.93;28.67;;;-2.00;99.90;;;;;;5040421;28;20187;-77
2022/12/19 00:58:49;;;;;;;50.20;27.47;;;-1.90;99.90;;;;;;5053315;28;20178;-78
2022/12/19 01:01:18;;;;;;;45.43;23.37;;;-2.00;99.90;;;;;;5055733;28;20213;-76
2022/12/19 01:03:44;;;;;;;28.37;17.90;;;-2.00;99.90;;;;;;5052497;28;20221;-77
2022/12/19 01:06:10;;;;;;;34.97;21.37;;;-2.00;99.90;;;;;;5047622;28;20229;-76
2022/12/19 01:08:36;;;;;;;40.60;22.63;;;-2.00;99.90;;;;;;5043492;28;20182;-78
2022/12/19 01:11:03;;;;;;;42.23;23.33;;;-2.00;99.90;;;;;;5078175;23;20297;-79
2022/12/19 01:13:30;;;;;;;45.93;23.03;;;-2.00;99.90;;;;;;5075180;28;20243;-79
2022/12/19 01:16:02;;;;;;;41.80;23.87;;;-2.10;99.90;;;;;;5083611;28;20185;-78
2022/12/19 01:18:28;;;;;;;36.23;23.10;;;-2.10;99.90;;;;;;5087245;28;20182;-80
2022/12/19 01:20:54;;;;;;;43.53;21.60;;;-2.20;99.90;;;;;;5079796;28;20224;-80
2022/12/19 01:23:19;;;;;;;35.73;20.27;;;-2.20;99.90;;;;;;5071806;28;20181;-79
2022/12/19 01:25:51;;;;;;;40.17;21.90;;;-2.20;99.90;;;;;;5072425;28;20217;-79
2022/12/19 01:28:17;;;;;;;37.80;22.03;;;-2.20;99.90;;;;;;5067964;28;20197;-80
2022/12/19 01:30:43;;;;;;;45.43;23.30;;;-2.20;99.90;;;;;;5057553;28;20597;-80
2022/12/19 01:33:13;;;;;;;41.50;22.17;;;-2.30;99.90;;;;;;5055377;28;20269;-80
2022/12/19 01:35:40;;;;;;;36.80;21.47;;;-2.20;99.90;;;;;;5055517;28;20254;-80
2022/12/19 01:38:06;;;;;;;41.43;25.13;;;-2.20;99.90;;;;;;5055824;28;20247;-79
2022/12/19 01:40:32;;;;;;;40.43;23.33;;;-2.20;99.90;;;;;;5056223;28;20206;-79
2022/12/19 01:43:00;;;;;;;41.77;23.60;;;-2.10;99.90;;;;;;5054483;28;20548;-79
2022/12/19 01:45:33;;;;;;;40.77;23.60;;;-2.00;99.90;;;;;;5056004;28;20227;-79
2022/12/19 01:48:37;;;;;;;43.20;22.93;;;-1.90;99.90;;;;;;5054252;28;20186;-79
2022/12/19 01:51:17;;;;;;;37.13;22.13;;;-1.90;99.90;;;;;;4996973;28;20214;-79
2022/12/19 01:53:55;;;;;;;41.93;23.70;;;-1.90;99.90;;;;;;5048409;28;20191;-79
2022/12/19 01:56:27;;;;;;;42.50;23.43;;;-1.80;99.90;;;;;;5054239;28;20186;-78
2022/12/19 01:58:55;;;;;;;40.93;22.70;;;-1.80;99.90;;;;;;5061628;28;20205;-79
2022/12/19 02:01:21;;;;;;;37.57;21.37;;;-1.70;99.90;;;;;;5067798;28;20229;-79
2022/12/19 02:03:47;;;;;;;41.97;23.53;;;-1.70;99.90;;;;;;5059183;28;20180;-78
2022/12/19 02:06:14;;;;;;;37.17;22.13;;;-1.70;99.90;;;;;;5063181;28;20284;-79
2022/12/19 02:08:41;;;;;;;39.63;21.23;;;-1.70;99.90;;;;;;5064137;28;20189;-80
2022/12/19 02:11:06;;;;;;;37.03;20.97;;;-1.70;99.90;;;;;;5057834;28;20236;-79
2022/12/19 02:13:32;;;;;;;35.97;20.10;;;-1.70;99.90;;;;;;5057160;28;20179;-79
2022/12/19 02:16:16;;;;;;;40.60;22.23;;;-1.60;99.90;;;;;;5065986;28;20189;-79
2022/12/19 02:18:57;;;;;;;39.90;21.10;;;-1.60;99.90;;;;;;5055562;28;20268;-80
2022/12/19 02:21:50;;;;;;;33.60;18.97;;;-1.50;99.90;;;;;;5053811;28;20210;-80
2022/12/19 02:24:31;;;;;;;35.53;19.87;;;-1.50;99.90;;;;;;5070018;28;20564;-79
2022/12/19 02:27:09;;;;;;;29.53;16.27;;;-1.50;99.90;;;;;;5053174;28;20232;-80
2022/12/19 02:30:03;;;;;;;35.77;20.30;;;-1.50;99.90;;;;;;5059160;28;20185;-80
2022/12/19 02:32:47;;;;;;;32.70;19.93;;;-1.40;99.90;;;;;;5053941;28;20239;-79
2022/12/19 02:35:29;;;;;;;36.60;21.93;;;-1.30;99.90;;;;;;5054707;28;20189;-79
2022/12/19 02:38:15;;;;;;;39.40;20.83;;;-1.30;99.90;;;;;;5053273;28;20319;-79
2022/12/19 02:40:48;;;;;;;34.10;20.40;;;-1.30;99.90;;;;;;5054465;28;20217;-79
2022/12/19 02:43:16;;;;;;;35.23;20.53;;;-1.20;99.90;;;;;;5054374;28;20195;-79
2022/12/19 02:45:44;;;;;;;40.97;21.07;;;-1.10;99.90;;;;;;5070180;28;20189;-79
2022/12/19 02:48:10;;;;;;;31.90;21.53;;;-1.20;99.90;;;;;;5077930;28;20185;-79
2022/12/19 02:50:42;;;;;;;47.37;22.50;;;-1.20;99.90;;;;;;5052216;28;20194;-78
2022/12/19 02:53:13;;;;;;;32.60;20.83;;;-1.10;99.90;;;;;;5050596;28;20767;-78
2022/12/19 02:56:00;;;;;;;31.30;19.53;;;-1.10;99.90;;;;;;5051103;28;20179;-79
2022/12/19 02:58:49;;;;;;;35.67;22.30;;;-1.00;99.90;;;;;;5051166;28;20226;-78
2022/12/19 03:01:35;;;;;;;39.20;22.60;;;-1.00;99.90;;;;;;5067764;28;20198;-79
2022/12/19 03:04:33;;;;;;;38.90;21.93;;;-0.90;99.90;;;;;;5039469;28;20530;-79
2022/12/19 03:07:12;;;;;;;36.57;21.43;;;-0.90;99.90;;;;;;5031926;28;20226;-80
2022/12/19 03:10:07;;;;;;;41.07;22.63;;;-0.90;99.90;;;;;;5034221;28;20181;-80
2022/12/19 03:12:44;;;;;;;34.70;22.40;;;-0.90;99.90;;;;;;5042563;28;20194;-80
2022/12/19 03:15:11;;;;;;;37.00;21.13;;;-0.90;99.90;;;;;;5053908;28;20186;-79
2022/12/19 03:17:37;;;;;;;35.33;21.33;;;-0.90;99.90;;;;;;5052315;28;20185;-79
2022/12/19 03:20:32;;;;;;;33.10;21.57;;;-0.90;99.90;;;;;;5053331;28;20304;-80
2022/12/19 03:22:58;;;;;;;37.20;22.30;;;-0.80;99.90;;;;;;5048933;28;20567;-80
2022/12/19 03:25:27;;;;;;;29.30;17.80;;;-0.80;99.90;;;;;;5061758;28;20190;-79
2022/12/19 03:27:55;;;;;;;37.73;21.83;;;-0.80;99.90;;;;;;5072799;28;20209;-79
2022/12/19 03:30:21;;;;;;;36.43;20.50;;;-0.70;99.90;;;;;;5074402;28;20646;-79
2022/12/19 03:32:48;;;;;;;33.57;19.57;;;-0.80;99.90;;;;;;5061001;28;20182;-79
2022/12/19 03:35:20;;;;;;;35.33;21.40;;;-0.70;99.90;;;;;;5053783;28;20236;-79
2022/12/19 03:37:49;;;;;;;31.23;20.23;;;-0.70;99.90;;;;;;5052343;28;20193;-79
2022/12/19 03:40:20;;;;;;;34.33;19.33;;;-0.70;99.90;;;;;;5052665;28;20744;-79
2022/12/19 03:45:55;;;;;;;31.63;19.37;;;-0.60;99.90;;;;;;5058291;28;20643;-79
2022/12/19 03:48:49;;;;;;;32.27;19.13;;;-0.60;99.90;;;;;;5068994;28;20178;-79
2022/12/19 03:51:18;;;;;;;31.37;18.20;;;-0.50;99.90;;;;;;5076918;28;20211;-79
2022/12/19 03:54:12;;;;;;;32.27;19.13;;;-0.50;99.90;;;;;;5058868;28;20176;-79
2022/12/19 03:56:45;;;;;;;32.10;19.43;;;-0.50;99.90;;;;;;5057427;28;20186;-79
2022/12/19 03:59:35;;;;;;;29.10;19.20;;;-0.50;99.90;;;;;;5056294;28;20194;-79
2022/12/19 04:02:02;;;;;;;33.20;19.27;;;-0.50;99.90;;;;;;5047436;28;20225;-79
2022/12/19 04:04:30;;;;;;;31.10;17.97;;;-0.50;99.90;;;;;;5055968;28;20188;-79
2022/12/19 04:06:57;;;;;;;36.13;19.47;;;-0.50;99.90;;;;;;5057404;28;20209;-78
2022/12/19 04:09:23;;;;;;;30.47;18.27;;;-0.50;99.90;;;;;;5057370;28;20179;-79
2022/12/19 04:12:02;;;;;;;34.07;17.57;;;-0.50;99.90;;;;;;5056660;28;20213;-79
2022/12/19 04:14:31;;;;;;;35.77;19.33;;;-0.50;99.90;;;;;;5057307;28;20179;-80
2022/12/19 04:17:13;;;;;;;32.43;18.00;;;-0.50;99.90;;;;;;5059351;28;20605;-79
2022/12/19 04:19:42;;;;;;;37.17;19.23;;;-0.50;99.90;;;;;;5066719;28;20195;-79
2022/12/19 04:22:20;;;;;;;25.83;17.27;;;-0.50;99.90;;;;;;5055716;28;20244;-80
2022/12/19 04:24:48;;;;;;;34.90;19.40;;;-0.50;99.90;;;;;;5056273;28;20185;-80
2022/12/19 04:27:14;;;;;;;32.30;18.27;;;-0.50;99.90;;;;;;5054885;28;21053;-80
2022/12/19 04:29:41;;;;;;;30.33;18.33;;;-0.50;99.90;;;;;;5055173;28;20218;-79
2022/12/19 04:32:08;;;;;;;32.83;19.17;;;-0.40;99.90;;;;;;5057641;28;20168;-80
2022/12/19 04:34:34;;;;;;;34.73;19.50;;;-0.40;99.90;;;;;;5059470;28;20181;-80
2022/12/19 04:37:01;;;;;;;35.20;19.47;;;-0.40;99.90;;;;;;5072088;28;20343;-80
2022/12/19 04:39:30;;;;;;;31.50;17.80;;;-0.40;99.90;;;;;;5068163;28;20660;-79
2022/12/19 04:41:55;;;;;;;33.73;19.80;;;-0.30;99.90;;;;;;5060787;28;20188;-80
2022/12/19 04:44:21;;;;;;;33.00;18.63;;;-0.30;99.90;;;;;;5071465;28;20254;-80
2022/12/19 04:46:47;;;;;;;34.97;20.50;;;-0.30;99.90;;;;;;5062090;28;20210;-80
2022/12/19 04:49:13;;;;;;;29.70;18.60;;;-0.20;99.90;;;;;;5064938;28;20179;-80
2022/12/19 04:51:39;;;;;;;35.43;19.53;;;-0.20;99.90;;;;;;5055004;28;20197;-80
2022/12/19 04:54:05;;;;;;;31.27;19.23;;;-0.10;99.90;;;;;;5054964;28;20180;-68
2022/12/19 04:56:30;;;;;;;39.77;19.03;;;-0.10;99.90;;;;;;5053563;28;20190;-68
2022/12/19 04:58:57;;;;;;;34.40;19.93;;;-0.10;99.90;;;;;;5049110;28;20196;-68
2022/12/19 05:01:23;;;;;;;38.50;19.57;;;-0.10;99.90;;;;;;5038195;28;20296;-68
2022/12/19 05:03:49;;;;;;;37.17;19.13;;;-0.10;99.90;;;;;;5033196;28;20655;-68
2022/12/19 05:06:14;;;;;;;34.20;18.93;;;0.00;99.90;;;;;;5045997;28;20754;-67
2022/12/19 05:08:41;;;;;;;34.00;19.57;;;0.00;99.90;;;;;;5052960;28;20196;-68
2022/12/19 05:11:09;;;;;;;35.50;19.37;;;0.00;99.90;;;;;;5052971;28;20215;-67
2022/12/19 05:13:35;;;;;;;34.83;20.30;;;0.00;99.90;;;;;;5053050;28;20546;-67
2022/12/19 05:16:04;;;;;;;32.73;19.70;;;0.10;99.90;;;;;;5053126;28;20193;-68
2022/12/19 05:18:30;;;;;;;37.93;20.27;;;0.10;99.90;;;;;;5052723;28;20189;-68
2022/12/19 05:20:56;;;;;;;34.13;20.30;;;0.10;99.90;;;;;;5052870;28;20255;-68
2022/12/19 05:23:22;;;;;;;33.43;19.57;;;0.10;99.90;;;;;;5053149;28;20195;-68
2022/12/19 05:25:49;;;;;;;35.17;20.00;;;0.10;99.90;;;;;;5052800;28;20562;-67
2022/12/19 05:28:15;;;;;;;31.77;18.60;;;0.20;99.90;;;;;;5052426;28;20178;-68
2022/12/19 05:30:42;;;;;;;39.17;20.30;;;0.20;99.90;;;;;;5052894;28;20199;-68
2022/12/19 05:33:08;;;;;;;33.60;19.67;;;0.20;99.90;;;;;;5053084;28;20180;-67
2022/12/19 05:35:34;;;;;;;34.57;19.03;;;0.20;99.90;;;;;;5051392;28;20174;-68
2022/12/19 05:38:01;;;;;;;33.23;19.73;;;0.20;99.90;;;;;;5052261;28;20232;-68
2022/12/19 05:40:27;;;;;;;32.07;18.77;;;0.10;99.90;;;;;;5052443;28;20198;-67
2022/12/19 05:42:53;;;;;;;36.80;20.37;;;0.10;99.90;;;;;;5052631;28;20219;-67
2022/12/19 05:45:19;;;;;;;37.20;20.87;;;0.10;99.90;;;;;;5052157;28;20209;-67
2022/12/19 05:47:45;;;;;;;37.70;21.63;;;0.00;99.90;;;;;;5052089;28;20213;-67
2022/12/19 05:50:15;;;;;;;37.67;21.07;;;0.10;99.90;;;;;;5052359;28;20226;-67
2022/12/19 05:52:41;;;;;;;38.23;22.03;;;0.10;99.90;;;;;;5052104;28;20281;-68
2022/12/19 05:55:08;;;;;;;35.63;20.67;;;0.20;99.90;;;;;;5052219;28;20712;-67
2022/12/19 05:57:34;;;;;;;31.63;19.37;;;0.20;99.90;;;;;;5050848;28;20178;-68
2022/12/19 06:00:00;;;;;;;31.57;20.90;;;0.20;99.90;;;;;;5050567;28;20294;-68
2022/12/19 06:02:26;;;;;;;33.60;20.67;;;0.30;99.90;;;;;;5052291;28;20178;-68
2022/12/19 06:04:52;;;;;;;44.33;23.23;;;0.30;99.90;;;;;;5052085;28;20236;-68
2022/12/19 06:07:18;;;;;;;36.03;21.53;;;0.30;99.90;;;;;;5051299;28;20222;-63
2022/12/19 06:09:43;;;;;;;41.03;23.03;;;0.40;99.90;;;;;;5051381;28;20188;-63
2022/12/19 06:12:09;;;;;;;37.87;21.27;;;0.40;99.90;;;;;;5052039;28;20189;-67
2022/12/19 06:14:35;;;;;;;39.23;21.70;;;0.40;99.90;;;;;;5051773;28;20184;-67
2022/12/19 06:17:00;;;;;;;35.67;21.13;;;0.40;99.90;;;;;;5050395;28;20185;-67
2022/12/19 06:19:26;;;;;;;42.10;22.33;;;0.40;99.90;;;;;;5051829;28;20186;-67
2022/12/19 06:21:52;;;;;;;42.53;23.47;;;0.40;99.90;;;;;;5050414;28;20567;-67
2022/12/19 06:24:18;;;;;;;39.70;22.97;;;0.40;99.90;;;;;;5055509;28;20192;-67
2022/12/19 06:26:44;;;;;;;39.30;22.30;;;0.40;99.90;;;;;;5065474;28;20219;-67
2022/12/19 06:29:10;;;;;;;37.10;21.50;;;0.40;99.90;;;;;;5055734;28;20700;-67
2022/12/19 06:31:35;;;;;;;33.17;20.83;;;0.40;99.90;;;;;;5051959;28;20229;-67
2022/12/19 06:34:01;;;;;;;43.30;22.13;;;0.40;99.90;;;;;;5050513;28;20225;-67
2022/12/19 06:36:29;;;;;;;38.50;21.03;;;0.50;99.90;;;;;;5051098;28;20269;-68
2022/12/19 06:38:59;;;;;;;38.27;21.40;;;0.50;99.90;;;;;;5049790;28;20178;-67
2022/12/19 06:44:12;;;;;;;39.37;22.93;;;0.50;99.90;;;;;;5051116;28;20190;-67
2022/12/19 06:46:39;;;;;;;30.87;21.43;;;0.60;99.90;;;;;;5051255;28;20288;-67
2022/12/19 06:49:07;;;;;;;41.20;23.53;;;0.60;99.90;;;;;;5051035;28;20209;-67
2022/12/19 06:51:33;;;;;;;36.83;22.37;;;0.60;99.90;;;;;;5050725;28;20288;-67
2022/12/19 06:53:59;;;;;;;35.73;21.90;;;0.60;99.90;;;;;;5051241;28;20179;-67
2022/12/19 06:56:25;;;;;;;41.37;23.30;;;0.60;99.90;;;;;;5051198;28;20188;-67
2022/12/19 06:58:51;;;;;;;32.63;20.77;;;0.60;99.90;;;;;;5050811;28;20186;-68
2022/12/19 07:01:37;;;;;;;36.60;21.20;;;0.60;99.90;;;;;;5051226;28;20198;-67
2022/12/19 07:04:03;;;;;;;34.33;20.33;;;0.60;99.90;;;;;;5010260;28;20580;-67
2022/12/19 07:06:29;;;;;;;31.93;19.53;;;0.60;99.90;;;;;;5050824;28;20201;-67
2022/12/19 07:08:54;;;;;;;35.20;20.50;;;0.60;99.90;;;;;;5050694;28;20192;-67
2022/12/19 07:11:20;;;;;;;38.83;22.67;;;0.60;99.90;;;;;;5078482;23;20251;-71
2022/12/19 07:13:46;;;;;;;36.20;21.77;;;0.70;99.90;;;;;;5070355;28;20237;-71
2022/12/19 07:16:12;;;;;;;42.37;21.07;;;0.70;99.90;;;;;;5070896;28;20280;-71
2022/12/19 07:18:39;;;;;;;38.80;22.70;;;0.70;99.90;;;;;;5070425;28;20189;-71
2022/12/19 07:21:07;;;;;;;33.13;20.27;;;0.70;99.90;;;;;;5069724;28;20353;-74
2022/12/19 07:23:33;;;;;;;37.23;21.53;;;0.70;99.90;;;;;;5069779;28;20175;-74
2022/12/19 07:25:59;;;;;;;42.73;21.83;;;0.80;99.90;;;;;;5068426;28;20355;-73
2022/12/19 07:28:26;;;;;;;40.50;22.07;;;0.80;99.90;;;;;;5070844;28;20665;-76
2022/12/19 07:30:51;;;;;;;33.57;22.43;;;0.80;99.90;;;;;;5069616;28;20289;-68
2022/12/19 07:33:17;;;;;;;57.93;23.60;;;0.80;99.90;;;;;;5070416;28;20181;-68
2022/12/19 07:35:43;;;;;;;47.57;24.47;;;0.90;99.90;;;;;;5071025;28;20649;-68
2022/12/19 07:38:09;;;;;;;35.13;23.13;;;0.90;99.90;;;;;;5070770;28;20182;-67
2022/12/19 07:40:34;;;;;;;46.17;25.63;;;0.90;99.90;;;;;;5070949;28;20193;-74
2022/12/19 07:43:02;;;;;;;34.90;22.10;;;1.00;99.90;;;;;;5058030;28;20717;-75
2022/12/19 07:45:28;;;;;;;40.73;23.70;;;1.00;99.90;;;;;;5061393;28;20348;-77
2022/12/19 07:47:54;;;;;;;34.73;20.57;;;1.00;99.90;;;;;;5078143;28;20228;-75
2022/12/19 07:50:21;;;;;;;36.33;22.47;;;1.00;99.90;;;;;;5070676;28;20208;-76
2022/12/19 07:52:46;;;;;;;35.97;20.93;;;1.00;99.90;;;;;;5070575;28;20567;-74
2022/12/19 07:55:12;;;;;;;38.80;23.30;;;1.00;99.90;;;;;;5070645;28;20179;-74
2022/12/19 07:57:38;;;;;;;42.87;21.43;;;1.10;99.90;;;;;;5069975;28;20177;-74
2022/12/19 08:00:05;;;;;;;38.53;20.63;;;1.10;99.90;;;;;;5076739;28;20195;-73
2022/12/19 08:02:31;;;;;;;35.87;23.37;;;1.10;99.90;;;;;;5076402;28;20219;-74
2022/12/19 08:04:56;;;;;;;36.27;23.07;;;1.20;99.90;;;;;;5070391;28;20741;-76
2022/12/19 08:07:22;;;;;;;37.67;22.37;;;1.20;99.90;;;;;;5070063;28;20220;-74
2022/12/19 08:09:48;;;;;;;34.73;20.73;;;1.20;99.90;;;;;;5070638;28;20213;-74
2022/12/19 08:12:14;;;;;;;38.73;23.23;;;1.20;99.90;;;;;;5070031;28;20689;-74
2022/12/19 08:14:39;;;;;;;41.93;20.90;;;1.20;99.90;;;;;;5070310;28;20185;-74
2022/12/19 08:17:05;;;;;;;35.80;20.80;;;1.30;99.90;;;;;;5070183;28;20605;-73
2022/12/19 08:19:31;;;;;;;36.97;21.37;;;1.40;99.90;;;;;;5070177;28;20180;-77
2022/12/19 08:21:57;;;;;;;35.00;22.23;;;1.40;99.90;;;;;;5070899;28;20714;-75
2022/12/19 08:24:23;;;;;;;31.47;19.20;;;1.40;99.90;;;;;;5069560;28;20271;-73
2022/12/19 08:26:49;;;;;;;30.67;20.17;;;1.50;99.90;;;;;;5070298;28;20319;-74
2022/12/19 08:29:15;;;;;;;36.23;20.80;;;1.50;99.90;;;;;;5070735;28;20181;-73
2022/12/19 08:31:40;;;;;;;33.37;22.63;;;1.50;99.90;;;;;;5072367;28;20239;-74
2022/12/19 08:34:06;;;;;;;39.87;22.80;;;1.50;99.90;;;;;;5076322;28;20184;-72
2022/12/19 08:36:33;;;;;;;35.10;21.53;;;1.60;99.90;;;;;;5075564;28;20188;-73
2022/12/19 08:39:00;;;;;;;40.80;23.13;;;1.70;99.90;;;;;;5074568;28;20283;-73
2022/12/19 08:41:26;;;;;;;39.40;22.87;;;1.80;99.90;;;;;;5089728;28;20683;-73
2022/12/19 08:43:52;;;;;;;40.50;24.00;;;1.80;99.90;;;;;;5093934;28;20188;-73
2022/12/19 08:46:19;;;;;;;38.37;24.90;;;1.90;99.90;;;;;;5093454;28;20216;-70
2022/12/19 08:48:45;;;;;;;35.97;23.40;;;1.90;99.90;;;;;;5093396;28;20183;-71
2022/12/19 08:51:12;;;;;;;34.90;27.23;;;2.00;99.90;;;;;;5079196;28;20206;-74
2022/12/19 08:53:40;;;;;;;40.23;24.57;;;2.10;99.90;;;;;;5093100;28;20267;-72
2022/12/19 08:56:15;;;;;;;36.50;22.53;;;2.10;99.90;;;;;;5094517;28;20183;-74
2022/12/19 08:58:42;;;;;;;30.90;19.83;;;2.20;99.90;;;;;;5093572;28;20695;-72
2022/12/19 09:01:12;;;;;;;33.90;22.20;;;2.20;99.90;;;;;;5093579;28;20197;-71
2022/12/19 09:03:39;;;;;;;29.70;19.67;;;2.20;99.90;;;;;;5093441;28;20187;-73
2022/12/19 09:06:08;;;;;;;32.37;19.47;;;2.30;99.90;;;;;;5096721;28;20211;-74
2022/12/19 09:08:34;;;;;;;32.63;19.73;;;2.30;99.90;;;;;;5104987;28;20183;-71
2022/12/19 09:11:06;;;;;;;32.50;20.33;;;2.30;99.90;;;;;;5093703;28;20644;-71
2022/12/19 09:13:33;;;;;;;34.57;19.87;;;2.30;99.90;;;;;;5093360;28;20187;-71
2022/12/19 09:16:05;;;;;;;33.70;21.07;;;2.30;99.90;;;;;;5093311;28;20591;-71
2022/12/19 09:18:31;;;;;;;34.20;19.87;;;2.30;99.90;;;;;;5092748;28;20215;-71
2022/12/19 09:20:58;;;;;;;32.83;20.97;;;2.30;99.90;;;;;;5093354;28;20224;-66
2022/12/19 09:23:28;;;;;;;32.17;20.10;;;2.40;99.90;;;;;;5056605;28;20265;-67
2022/12/19 09:25:56;;;;;;;32.23;20.03;;;2.30;99.90;;;;;;5053032;28;20177;-71
2022/12/19 09:28:22;;;;;;;34.27;20.30;;;2.50;99.90;;;;;;5061817;28;20212;-70
2022/12/19 09:30:55;;;;;;;34.30;22.87;;;2.50;99.90;;;;;;5072452;28;20283;-71
2022/12/19 09:33:21;;;;;;;32.67;22.60;;;2.60;99.90;;;;;;5072663;28;20195;-72
2022/12/19 09:35:54;;;;;;;32.57;22.07;;;2.60;99.90;;;;;;5072781;28;20177;-72
2022/12/19 09:38:22;;;;;;;36.47;22.40;;;2.70;99.90;;;;;;5072270;28;20667;-72
2022/12/19 09:41:12;;;;;;;36.90;23.10;;;2.80;99.90;;;;;;5072634;28;20197;-72
2022/12/19 09:43:50;;;;;;;28.33;21.03;;;2.90;99.90;;;;;;5078102;28;20655;-71
2022/12/19 09:46:18;;;;;;;29.20;21.60;;;2.90;99.90;;;;;;5075060;28;20212;-72
2022/12/19 09:48:46;;;;;;;36.37;25.50;;;2.90;99.90;;;;;;5072119;28;20192;-71
2022/12/19 09:51:46;;;;;;;39.30;26.63;;;3.00;99.90;;;;;;5072320;28;20716;-71
2022/12/19 09:54:26;;;;;;;40.60;24.50;;;3.10;99.90;;;;;;5071382;28;20200;-73
2022/12/19 09:56:58;;;;;;;37.03;25.33;;;3.20;99.90;;;;;;5071818;28;20577;-71
2022/12/19 09:59:47;;;;;;;37.30;26.30;;;3.20;99.90;;;;;;5072037;28;20666;-70
2022/12/19 10:02:14;;;;;;;32.80;24.13;;;3.30;99.90;;;;;;5072122;28;20553;-70
2022/12/19 10:04:48;;;;;;;40.07;24.83;;;3.40;99.90;;;;;;5072225;28;20204;-72
2022/12/19 10:07:17;;;;;;;35.07;22.47;;;3.40;99.90;;;;;;5070052;28;20205;-70
2022/12/19 10:09:43;;;;;;;41.00;23.97;;;3.40;99.90;;;;;;5071968;28;20237;-70
2022/12/19 10:12:38;;;;;;;32.93;23.57;;;3.50;99.90;;;;;;5070638;28;20220;-70
2022/12/19 10:15:42;;;;;;;36.43;27.50;;;3.60;99.90;;;;;;5069335;28;20188;-69
2022/12/19 10:18:41;;;;;;;36.97;29.90;;;3.80;99.90;;;;;;5050238;28;20192;-69
2022/12/19 10:21:29;;;;;;;39.67;31.53;;;3.90;99.90;;;;;;5057988;28;20196;-72
2022/12/19 10:24:01;;;;;;;38.80;27.83;;;4.10;99.90;;;;;;5068185;28;20545;-70
2022/12/19 10:26:45;;;;;;;34.77;25.90;;;4.20;99.90;;;;;;5051912;28;20237;-70
2022/12/19 10:29:32;;;;;;;32.83;24.07;;;4.30;99.90;;;;;;5051689;28;20552;-69
2022/12/19 10:32:17;;;;;;;36.17;22.43;;;4.30;99.90;;;;;;5051718;28;20201;-69
2022/12/19 10:34:46;;;;;;;35.90;23.13;;;4.10;99.90;;;;;;5058608;28;20202;-70
2022/12/19 10:37:15;;;;;;;35.80;25.90;;;3.90;99.90;;;;;;5053857;28;20193;-70
2022/12/19 10:39:52;;;;;;;39.40;25.77;;;3.90;99.90;;;;;;5051256;28;20182;-69
2022/12/19 10:42:33;;;;;;;37.43;26.17;;;3.90;99.90;;;;;;5051272;28;20215;-69
2022/12/19 10:45:08;;;;;;;38.77;26.97;;;4.00;99.90;;;;;;5051236;28;20189;-69
2022/12/19 10:47:34;;;;;;;38.60;29.37;;;4.10;99.90;;;;;;5050780;28;20616;-69
2022/12/19 10:49:59;;;;;;;34.47;23.33;;;4.10;99.90;;;;;;5051169;28;20181;-69
2022/12/19 10:53:13;;;;;;;36.07;23.37;;;4.10;99.90;;;;;;5051164;28;20182;-69
2022/12/19 10:55:42;;;;;;;33.97;23.80;;;4.30;99.90;;;;;;5050512;28;20186;-69
2022/12/19 10:58:33;;;;;;;36.30;23.10;;;4.50;99.90;;;;;;5049463;28;20557;-69
2022/12/19 11:01:01;;;;;;;33.30;21.80;;;4.60;99.90;;;;;;5051151;28;20210;-69
2022/12/19 11:03:28;;;;;;;35.63;24.07;;;4.70;99.90;;;;;;5050808;28;20253;-68
2022/12/19 11:05:57;;;;;;;32.30;20.60;;;4.80;99.90;;;;;;5051020;28;20182;-68
2022/12/19 11:08:27;;;;;;;37.67;22.83;;;4.90;99.90;;;;;;5050743;28;20166;-69
2022/12/19 11:11:08;;;;;;;33.17;20.97;;;5.00;99.90;;;;;;5049734;28;20217;-68
2022/12/19 11:13:34;;;;;;;33.37;20.90;;;4.90;99.90;;;;;;5050996;28;20269;-69
2022/12/19 11:16:02;;;;;;;35.13;21.27;;;4.80;99.90;;;;;;5050919;28;20205;-69
2022/12/19 11:18:42;;;;;;;31.00;22.13;;;5.00;99.90;;;;;;5050480;28;20204;-68
2022/12/19 11:21:19;;;;;;;39.37;24.93;;;5.10;99.90;;;;;;5049483;28;20197;-68
2022/12/19 11:23:56;;;;;;;43.77;24.27;;;5.20;99.90;;;;;;5050774;28;20177;-68
2022/12/19 11:26:46;;;;;;;34.33;23.40;;;5.30;99.90;;;;;;5060871;28;20620;-68
2022/12/19 11:29:26;;;;;;;36.73;24.20;;;5.40;99.90;;;;;;5045591;28;20193;-68
2022/12/19 11:31:59;;;;;;;37.50;25.07;;;5.60;99.90;;;;;;5080741;28;20539;-69
2022/12/19 11:34:28;;;;;;;38.03;24.63;;;5.80;99.90;;;;;;5086220;28;20186;-68
2022/12/19 11:37:06;;;;;;;37.40;25.37;;;5.90;99.90;;;;;;5070306;28;20182;-68
2022/12/19 11:39:35;;;;;;;35.60;23.63;;;5.90;99.90;;;;;;5070529;28;20277;-68
2022/12/19 11:42:23;;;;;;;36.20;23.93;;;6.00;99.90;;;;;;5069444;28;20712;-69
2022/12/19 11:45:19;;;;;;;40.17;24.10;;;6.10;99.90;;;;;;5070718;28;20185;-68
2022/12/19 11:47:53;;;;;;;34.70;23.83;;;5.90;99.90;;;;;;5069839;28;20308;-69
2022/12/19 11:50:36;;;;;;;43.00;22.90;;;5.90;99.90;;;;;;5070594;28;20216;-68
2022/12/19 11:53:14;;;;;;;37.73;21.40;;;5.80;99.90;;;;;;5070596;28;20195;-69
2022/12/19 11:55:59;;;;;;;34.30;22.20;;;5.50;99.90;;;;;;5070398;28;20224;-69
2022/12/19 11:58:30;;;;;;;42.70;23.10;;;5.40;99.90;;;;;;5070326;28;20541;-69
2022/12/19 12:01:36;;;;;;;33.37;22.47;;;5.30;99.90;;;;;;5070327;28;20762;-69
2022/12/19 12:04:52;;;;;;;30.27;21.40;;;5.30;99.90;;;;;;5070477;28;20676;-69
2022/12/19 12:07:18;;;;;;;35.80;23.47;;;5.20;99.90;;;;;;5069966;28;20221;-69
2022/12/19 12:09:49;;;;;;;35.43;22.10;;;5.10;99.90;;;;;;5074467;28;20363;-69
2022/12/19 12:12:31;;;;;;;37.67;22.83;;;5.10;99.90;;;;;;5074282;28;20237;-69
2022/12/19 12:15:34;;;;;;;36.43;21.70;;;5.10;99.90;;;;;;5074613;28;20230;-69
2022/12/19 12:18:15;;;;;;;38.13;23.53;;;5.00;99.90;;;;;;5080701;28;20296;-69
2022/12/19 12:20:50;;;;;;;43.20;22.93;;;5.00;99.90;;;;;;5074295;28;20205;-72
2022/12/19 12:23:27;;;;;;;34.90;21.27;;;5.10;99.90;;;;;;5073249;28;20181;-69
2022/12/19 12:26:04;;;;;;;35.40;22.27;;;5.20;99.90;;;;;;5074290;28;20181;-73
2022/12/19 12:28:46;;;;;;;32.63;22.30;;;5.20;99.90;;;;;;5061314;28;20280;-68
2022/12/19 12:31:32;;;;;;;34.93;22.47;;;5.10;99.90;;;;;;5054685;28;20206;-68
2022/12/19 12:34:23;;;;;;;31.60;20.47;;;5.50;99.90;;;;;;5062755;28;20183;-68
2022/12/19 12:36:59;;;;;;;32.73;19.27;;;5.80;99.90;;;;;;5073613;28;20596;-68
2022/12/19 12:39:37;;;;;;;36.00;19.70;;;5.70;99.90;;;;;;5073662;28;20209;-69
2022/12/19 12:42:23;;;;;;;29.90;20.93;;;5.60;99.90;;;;;;5073411;28;20216;-69
2022/12/19 12:44:54;;;;;;;30.87;19.53;;;5.70;99.90;;;;;;5078047;28;20185;-69
2022/12/19 12:47:25;;;;;;;31.27;20.40;;;6.00;99.90;;;;;;5073345;28;20205;-69
2022/12/19 12:50:01;;;;;;;36.60;20.50;;;6.30;99.90;;;;;;5073505;28;20541;-69
2022/12/19 12:52:40;;;;;;;36.23;20.73;;;6.40;99.90;;;;;;5073722;28;20212;-69
2022/12/19 12:55:30;;;;;;;31.30;20.10;;;6.60;99.90;;;;;;5073557;28;20227;-69
2022/12/19 12:57:56;;;;;;;34.37;19.93;;;7.10;99.90;;;;;;5072773;28;20186;-69
2022/12/19 13:00:26;;;;;;;28.70;20.30;;;7.30;99.90;;;;;;5073420;28;20210;-70
2022/12/19 13:03:03;;;;;;;31.87;20.37;;;7.30;99.90;;;;;;5073364;28;20638;-69